Time;durP1;ratioP1;P1;durP2;ratioP2;P2;SDS_P1;SDS_P2;PMS_P1;PMS_P2;Temp;Humidity;BMP_temperature;BMP_pressure;BME280_temperature;BME280_humidity;BME280_pressure;Samples;Min_cycle;Max_cycle;Signal;HPM_P1;HPM_P2
2021/10/28 00:13:55;;;;;;;;;26.50;24.25;;;;;17.51;56.72;99397.06;4941310;28;103240;-84
2021/10/28 00:16:28;;;;;;;;;29.25;24.00;;;;;17.50;57.12;99382.56;4945643;28;104376;-84
2021/10/28 00:19:00;;;;;;;;;22.50;20.00;;;;;17.48;57.32;99390.13;4943459;28;102350;-83
2021/10/28 00:21:30;;;;;;;;;23.75;23.00;;;;;17.44;57.17;99379.88;4947754;28;102497;-84
2021/10/28 00:24:02;;;;;;;;;25.00;23.75;;;;;17.44;57.52;99379.88;4933408;28;102439;-84
2021/10/28 00:26:32;;;;;;;;;24.50;22.00;;;;;17.42;57.69;99373.81;4954523;28;109758;-84
2021/10/28 00:29:01;;;;;;;;;26.00;21.75;;;;;17.40;58.37;99380.34;4950185;28;102406;-84
2021/10/28 00:31:31;;;;;;;;;22.75;20.75;;;;;17.38;57.74;99387.91;4938987;28;102433;-83
2021/10/28 00:33:58;;;;;;;;;21.00;19.25;;;;;17.36;57.83;99378.28;4950617;28;102161;-83
2021/10/28 00:36:26;;;;;;;;;25.75;22.25;;;;;17.36;57.51;99381.03;4941320;28;104012;-84
2021/10/28 00:38:54;;;;;;;;;27.75;22.75;;;;;17.35;56.99;99377.44;4947897;28;102129;-84
2021/10/28 00:41:22;;;;;;;;;24.50;22.00;;;;;17.36;57.95;99375.56;4947982;28;102351;-84
2021/10/28 00:43:50;;;;;;;;;20.75;20.75;;;;;17.35;57.09;99376.59;4934819;28;106401;-84
2021/10/28 00:46:18;;;;;;;;;19.75;19.75;;;;;17.35;57.93;99365.66;4956103;28;104056;-84
2021/10/28 00:48:46;;;;;;;;;26.50;22.25;;;;;17.35;57.59;99379.34;4948692;28;102391;-84
2021/10/28 00:51:13;;;;;;;;;25.75;22.00;;;;;17.33;57.37;99382.31;4945505;28;103949;-83
2021/10/28 00:54:05;;;;;;;;;23.00;22.00;;;;;17.31;57.43;99392.63;4948577;28;103571;-84
2021/10/28 00:56:56;;;;;;;;;22.50;20.75;;;;;17.30;57.04;99390.13;4948821;28;107010;-84
2021/10/28 00:59:47;;;;;;;;;22.50;18.00;;;;;17.27;57.35;99387.84;4938707;28;102422;-83
2021/10/28 01:02:38;;;;;;;;;25.75;22.25;;;;;17.26;57.09;99380.69;4913939;28;103438;-84
2021/10/28 01:05:30;;;;;;;;;20.00;19.00;;;;;17.25;57.60;99384.47;4926808;28;102603;-84
2021/10/28 01:08:21;;;;;;;;;21.50;21.00;;;;;17.23;57.25;99386.63;4934187;28;107534;-84
2021/10/28 01:11:12;;;;;;;;;21.25;20.75;;;;;17.21;58.45;99380.53;4919613;28;102327;-84
2021/10/28 02:34:45;;;;;;;;;20.50;17.25;;;;;16.88;58.07;99356.25;4812144;23;103676;-70
2021/10/28 02:37:13;;;;;;;;;18.25;15.75;;;;;16.88;57.86;99369.91;4795740;29;102698;-69
2021/10/28 02:39:41;;;;;;;;;20.25;19.75;;;;;16.86;58.07;99364.66;4784925;29;104020;-70
2021/10/28 02:42:08;;;;;;;;;20.00;18.75;;;;;16.85;57.77;99359.41;4777875;29;102688;-70
2021/10/28 02:44:35;;;;;;;;;21.50;18.25;;;;;16.84;58.29;99361.31;4774401;29;102314;-70
2021/10/28 02:47:03;;;;;;;;;19.00;17.25;;;;;16.85;58.71;99370.34;4775019;28;102146;-70
2021/10/28 02:49:30;;;;;;;;;19.25;18.50;;;;;16.84;58.07;99372.22;4778991;29;104038;-70
2021/10/28 02:51:57;;;;;;;;;20.25;19.25;;;;;16.84;58.04;99366.75;4787756;29;105102;-70
2021/10/28 02:54:24;;;;;;;;;20.00;17.00;;;;;16.83;57.70;99367.84;4783223;29;102677;-69
2021/10/28 02:56:51;;;;;;;;;24.50;21.50;;;;;16.82;58.74;99371.63;4809729;28;102468;-69
2021/10/28 02:59:18;;;;;;;;;18.25;17.50;;;;;16.81;58.07;99369.94;4781037;29;103822;-69
2021/10/28 03:01:47;;;;;;;;;20.25;19.00;;;;;16.79;58.19;99363.88;4760187;29;102752;-69
2021/10/28 03:04:18;;;;;;;;;19.50;15.75;;;;;16.78;58.22;99370.41;4777004;29;102697;-70
2021/10/28 03:06:45;;;;;;;;;19.50;18.00;;;;;16.76;58.78;99358.84;4779345;29;102290;-69
2021/10/28 03:09:14;;;;;;;;;17.75;16.50;;;;;16.77;57.93;99362.44;4768528;29;104080;-70
2021/10/28 03:11:43;;;;;;;;;20.75;18.50;;;;;16.77;57.47;99376.06;4778525;29;102674;-69
2021/10/28 03:14:12;;;;;;;;;20.25;17.75;;;;;16.75;58.35;99370.81;4786394;29;102078;-70
2021/10/28 03:27:29;;;;;;;;;16.75;16.75;;;;;16.72;58.09;99374.00;4785419;29;104549;-70
2021/10/28 03:29:57;;;;;;;;;19.00;19.00;;;;;16.71;57.66;99372.34;4764807;29;109980;-69
2021/10/28 03:32:25;;;;;;;;;19.75;19.50;;;;;16.72;58.16;99378.63;4791766;29;102429;-70
2021/10/28 03:34:53;;;;;;;;;23.50;19.00;;;;;16.69;58.65;99379.94;4784604;29;102139;-69
2021/10/28 03:37:29;;;;;;;;;19.75;17.75;;;;;16.67;58.44;99381.19;4776433;28;104231;-69
2021/10/28 04:19:50;;;;;;;;;21.50;19.50;;;;;16.48;57.55;99404.81;4762676;29;102753;-70
2021/10/28 04:30:40;;;;;;;;;20.00;17.00;;;;;16.55;58.08;99410.22;4801845;28;102762;-69
2021/10/28 04:33:07;;;;;;;;;20.00;19.00;;;;;16.56;58.51;99411.91;4810289;29;104119;-68
2021/10/28 04:35:34;;;;;;;;;20.25;18.50;;;;;16.57;58.94;99408.94;4821081;28;102440;-68
2021/10/28 04:38:01;;;;;;;;;19.00;18.00;;;;;16.57;58.33;99408.94;4823074;28;102296;-68
2021/10/28 04:40:28;;;;;;;;;20.75;18.25;;;;;16.56;58.64;99412.75;4811317;29;102244;-68
2021/10/28 04:42:55;;;;;;;;;21.50;20.50;;;;;16.56;58.86;99406.47;4785877;29;104048;-68
2021/10/28 04:45:22;;;;;;;;;21.50;18.25;;;;;16.53;58.55;99407.72;4825263;28;103128;-69
2021/10/28 04:47:49;;;;;;;;;18.75;16.75;;;;;16.51;58.89;99405.22;4820677;28;102486;-69
2021/10/28 04:50:16;;;;;;;;;20.50;19.00;;;;;16.51;58.47;99409.84;4825811;28;102130;-68
2021/10/28 04:52:43;;;;;;;;;25.50;22.00;;;;;16.51;57.99;99404.38;4808158;28;109243;-68
2021/10/28 04:55:10;;;;;;;;;23.25;21.50;;;;;16.49;57.56;99406.47;4804594;29;102601;-68
2021/10/28 04:57:37;;;;;;;;;17.25;16.50;;;;;16.47;58.01;99398.53;4819813;28;102287;-69
2021/10/28 05:00:05;;;;;;;;;20.75;17.75;;;;;16.45;58.36;99395.16;4824436;28;103274;-68
2021/10/28 05:02:32;;;;;;;;;20.50;19.50;;;;;16.43;57.99;99405.50;4805349;28;104051;-68
2021/10/28 05:04:59;;;;;;;;;22.75;21.50;;;;;16.43;58.37;99418.31;4817607;28;102473;-68
2021/10/28 05:07:26;;;;;;;;;23.00;19.00;;;;;16.43;57.49;99410.94;4820447;28;102521;-68
2021/10/28 05:09:53;;;;;;;;;26.75;21.50;;;;;16.42;58.23;99402.97;4815711;28;102633;-68
2021/10/28 05:12:20;;;;;;;;;26.00;19.75;;;;;16.43;57.66;99415.56;4807345;28;103838;-69
2021/10/28 05:14:47;;;;;;;;;24.75;20.50;;;;;16.43;57.62;99412.84;4811944;28;102776;-68
2021/10/28 05:17:14;;;;;;;;;22.00;18.50;;;;;16.42;57.81;99419.34;4830340;28;102094;-68
2021/10/28 05:19:44;;;;;;;;;22.00;19.00;;;;;16.42;57.42;99416.63;4820299;28;102482;-68
2021/10/28 05:22:11;;;;;;;;;26.00;20.75;;;;;16.41;57.34;99418.50;4828455;28;104108;-69
2021/10/28 05:24:38;;;;;;;;;25.25;22.25;;;;;16.40;57.88;99418.72;4810380;28;102204;-68
2021/10/28 05:27:05;;;;;;;;;26.25;23.75;;;;;16.40;57.90;99415.97;4821972;28;102193;-68
2021/10/28 05:29:52;;;;;;;;;22.75;20.50;;;;;16.39;57.70;99417.06;4815954;28;102701;-68
2021/10/28 05:32:19;;;;;;;;;25.50;20.25;;;;;16.38;57.78;99421.69;4824058;29;104341;-68
2021/10/28 05:34:48;;;;;;;;;24.00;20.25;;;;;16.37;58.50;99414.53;4819402;28;102185;-68
2021/10/28 05:37:16;;;;;;;;;22.75;18.75;;;;;16.35;57.35;99416.63;4784621;28;102584;-68
2021/10/28 05:39:44;;;;;;;;;26.25;21.75;;;;;16.36;58.22;99422.94;4814707;29;102726;-68
2021/10/28 05:42:22;;;;;;;;;23.25;21.00;;;;;16.34;57.70;99427.78;4803869;28;107773;-69
2021/10/28 05:44:49;;;;;;;;;25.25;23.00;;;;;16.33;58.24;99412.47;4825328;28;103358;-68
2021/10/28 05:47:16;;;;;;;;;27.25;18.25;;;;;16.30;58.08;99408.25;4823537;28;103888;-68
2021/10/28 05:49:45;;;;;;;;;24.00;22.00;;;;;16.31;57.77;99414.56;4802593;29;102218;-68
2021/10/28 05:52:12;;;;;;;;;21.00;20.50;;;;;16.31;57.87;99415.41;4807717;28;103698;-68
2021/10/28 05:54:39;;;;;;;;;19.25;17.50;;;;;16.31;57.76;99415.41;4827666;28;102691;-68
2021/10/28 05:57:06;;;;;;;;;26.50;21.50;;;;;16.32;57.63;99411.63;4805162;29;102457;-68
2021/10/28 05:59:33;;;;;;;;;30.00;24.50;;;;;16.31;58.03;99425.47;4831875;28;102960;-68
2021/10/28 06:02:00;;;;;;;;;23.25;22.00;;;;;16.30;57.68;99421.09;4779011;28;103398;-68
2021/10/28 06:04:27;;;;;;;;;24.50;22.75;;;;;16.29;58.42;99420.25;4833571;28;102210;-69
2021/10/28 06:06:54;;;;;;;;;18.25;16.75;;;;;16.29;58.38;99424.88;4828375;28;102421;-68
2021/10/28 06:09:21;;;;;;;;;26.50;23.25;;;;;16.29;58.11;99427.59;4833300;28;102661;-68
2021/10/28 06:11:51;;;;;;;;;22.00;21.25;;;;;16.29;58.20;99427.59;4819036;29;108743;-68
2021/10/28 06:14:23;;;;;;;;;23.00;21.75;;;;;16.29;57.60;99433.06;4822922;28;102783;-68
2021/10/28 06:17:04;;;;;;;;;21.75;20.25;;;;;16.27;57.87;99426.97;4813678;29;102205;-68
2021/10/28 06:19:31;;;;;;;;;28.75;22.25;;;;;16.27;57.66;99437.88;4827505;28;102212;-68
2021/10/28 06:21:58;;;;;;;;;28.50;21.25;;;;;16.25;58.32;99442.75;4798850;28;103861;-68
2021/10/28 06:24:26;;;;;;;;;23.75;21.50;;;;;16.25;57.79;99445.47;4807084;29;102512;-68
2021/10/28 06:26:53;;;;;;;;;23.50;22.75;;;;;16.23;57.40;99442.13;4795566;29;102831;-68
2021/10/28 06:29:20;;;;;;;;;21.50;20.75;;;;;16.24;57.84;99446.53;4828640;28;102521;-68
2021/10/28 06:31:48;;;;;;;;;10.00;10.00;;;;;16.24;58.05;99447.38;4825810;28;104169;-68
2021/10/28 06:34:21;;;;;;;;;27.00;25.25;;;;;16.22;57.37;99437.69;4827313;29;102534;-68
2021/10/28 06:36:49;;;;;;;;;25.75;24.00;;;;;16.26;57.33;99441.66;4817766;29;102516;-68
2021/10/28 06:39:16;;;;;;;;;30.75;27.50;;;;;16.25;57.81;99445.47;4799810;28;102489;-68
2021/10/28 06:41:44;;;;;;;;;26.50;23.25;;;;;16.24;57.30;99451.97;4808804;28;104386;-68
2021/10/28 06:44:11;;;;;;;;;23.00;22.75;;;;;16.26;57.74;99458.88;4829441;28;102093;-68
2021/10/28 06:46:38;;;;;;;;;31.75;28.25;;;;;16.25;57.35;99461.84;4803157;28;109575;-68
2021/10/28 06:49:06;;;;;;;;;27.75;23.00;;;;;16.26;57.57;99455.31;4829783;28;102268;-68
2021/10/28 06:51:38;;;;;;;;;30.50;26.50;;;;;16.24;57.80;99451.97;4807032;29;104355;-68
2021/10/28 06:54:09;;;;;;;;;28.75;24.50;;;;;16.23;57.41;99453.88;4802992;28;107304;-68
2021/10/28 06:57:12;;;;;;;;;32.00;28.50;;;;;16.23;57.89;99453.88;4812829;29;102585;-68
2021/10/28 07:04:58;;;;;;;;;30.50;24.25;;;;;16.23;57.27;99450.31;4809370;29;102756;-68
2021/10/28 07:07:26;;;;;;;;;31.00;27.00;;;;;16.21;57.70;99452.44;4806663;28;102402;-68
2021/10/28 07:15:01;;;;;;;;;27.25;25.00;;;;;16.22;57.42;99449.47;4810524;28;102224;-68
2021/10/28 07:20:08;;;;;;;;;30.75;23.00;;;;;16.22;57.94;99443.16;4810553;29;102635;-68
2021/10/28 08:21:58;;;;;;;;;23.25;22.25;;;;;16.28;57.64;99434.13;4826878;28;102743;-68
2021/10/28 08:29:39;;;;;;;;;21.00;20.00;;;;;16.28;56.70;99423.19;4821825;28;102345;-68
2021/10/28 08:32:07;;;;;;;;;26.75;22.25;;;;;16.29;56.50;99428.44;4824634;28;103187;-68
2021/10/28 08:34:39;;;;;;;;;27.75;23.25;;;;;16.29;57.01;99424.88;4824211;28;102530;-68
2021/10/28 08:37:14;;;;;;;;;29.00;23.00;;;;;16.29;56.96;99419.41;4811067;29;104360;-68
2021/10/28 08:39:45;;;;;;;;;27.00;23.50;;;;;16.30;57.43;99424.63;4811076;28;102675;-68
2021/10/28 08:42:13;;;;;;;;;24.50;21.50;;;;;16.30;56.57;99423.84;4828613;28;102991;-69
2021/10/28 08:44:41;;;;;;;;;28.50;23.25;;;;;16.31;57.08;99423.59;4813039;29;103553;-68
2021/10/28 08:47:09;;;;;;;;;28.00;25.00;;;;;16.32;57.16;99421.69;4807336;29;105979;-68
2021/10/28 08:49:42;;;;;;;;;26.50;23.50;;;;;16.32;56.89;99405.31;4795597;28;102669;-68
2021/10/28 08:57:53;;;;;;;;;22.00;20.50;;;;;16.31;56.69;99403.66;4836746;28;108607;-68
2021/10/28 09:00:25;;;;;;;;;27.00;21.00;;;;;16.31;56.43;99404.50;4827145;28;102668;-68
2021/10/28 09:24:09;;;;;;;;;19.25;18.50;;;;;16.37;56.39;99389.97;4826625;29;111576;-68
2021/10/28 09:29:14;;;;;;;;;23.25;22.00;;;;;16.36;57.37;99384.72;4807745;28;102664;-68
2021/10/28 09:32:04;;;;;;;;;19.75;18.25;;;;;16.38;56.28;99393.53;4813436;28;105637;-69
2021/10/28 09:46:12;;;;;;;;;18.50;17.00;;;;;16.39;55.98;99378.84;4805034;29;102227;-68
2021/10/28 09:51:15;;;;;;;;;19.25;17.75;;;;;16.41;56.70;99380.28;4798756;28;103040;-68
2021/10/28 09:59:44;;;;;;;;;20.50;19.00;;;;;16.43;56.43;99375.47;4790568;29;102188;-68
2021/10/28 10:07:44;;;;;;;;;22.00;20.25;;;;;16.44;56.92;99365.34;4801686;29;102152;-68
2021/10/28 10:10:29;;;;;;;;;20.00;18.50;;;;;16.42;56.46;99362.88;4797044;28;102127;-68
2021/10/28 10:12:57;;;;;;;;;17.75;16.50;;;;;16.43;56.25;99360.97;4831745;28;102216;-68
2021/10/28 10:15:24;;;;;;;;;18.00;16.00;;;;;16.43;56.91;99358.25;4798156;29;110931;-68
2021/10/28 10:17:56;;;;;;;;;22.50;17.50;;;;;16.43;56.99;99359.09;4784449;29;102669;-68
2021/10/28 10:20:38;;;;;;;;;18.00;15.50;;;;;16.45;56.47;99345.19;4768415;29;104644;-68
2021/10/28 11:05:56;;;;;;;;;15.25;15.25;;;;;16.59;56.22;99335.88;4823332;28;103321;-68
2021/10/28 11:33:41;;;;;;;;;16.25;13.00;;;;;16.80;56.21;99294.53;4810711;29;103854;-70
2021/10/28 12:15:21;;;;;;;;;12.00;8.75;;;;;17.33;55.31;99244.78;4809273;29;103412;-68
2021/10/28 12:45:44;;;;;;;;;15.00;12.00;;;;;17.70;55.41;99224.53;4828724;28;103545;-68
2021/10/28 12:56:45;;;;;;;;;11.50;9.75;;;;;17.84;55.39;99220.56;4824547;28;103254;-68
2021/10/28 13:58:23;;;;;;;;;7.00;7.00;;;;;18.20;54.57;99194.94;4822010;28;102980;-68
2021/10/28 14:38:39;;;;;;;;;27.75;24.25;;;;;18.04;52.32;99186.59;4805043;28;102819;-68
2021/10/28 15:28:14;;;;;;;;;14.75;13.00;;;;;17.81;54.83;99176.44;4824408;28;107756;-68
2021/10/28 15:31:02;;;;;;;;;12.25;12.00;;;;;17.79;54.38;99168.44;4791256;28;102975;-68
2021/10/28 15:42:21;;;;;;;;;12.00;10.67;;;;;17.75;54.26;99177.34;4784346;28;103541;-68
2021/10/28 16:00:59;;;;;;;;;18.75;16.50;;;;;17.65;55.02;99164.22;4821672;28;108798;-69
2021/10/28 16:22:42;;;;;;;;;98.67;85.67;;;;;18.28;54.90;99155.47;4818061;28;108356;-69
2021/10/28 16:25:09;;;;;;;;;101.33;87.67;;;;;18.28;55.14;99150.00;4797494;28;102551;-70
2021/10/28 16:27:37;;;;;;;;;104.67;89.00;;;;;18.25;54.92;99155.91;4809190;28;102995;-70
2021/10/28 16:30:05;;;;;;;;;100.67;84.00;;;;;18.24;54.39;99155.06;4749870;29;103071;-70
2021/10/28 16:32:32;;;;;;;;;87.67;77.67;;;;;18.24;54.78;99155.06;4808088;28;109700;-69
2021/10/28 16:34:59;;;;;;;;;85.67;76.67;;;;;18.26;55.28;99157.59;4806285;28;103562;-70
2021/10/28 16:37:29;;;;;;;;;85.67;76.00;;;;;18.25;54.61;99155.91;4819407;28;103176;-70
2021/10/28 16:39:56;;;;;;;;;86.67;72.33;;;;;18.26;54.98;99160.31;4805090;28;102702;-70
2021/10/28 16:42:23;;;;;;;;;85.33;75.33;;;;;18.34;54.75;99157.22;4800341;29;104090;-74
2021/10/28 16:44:53;;;;;;;;;87.33;76.00;;;;;18.22;46.41;99159.13;4813651;28;102536;-73
2021/10/28 16:47:20;;;;;;;;;90.67;75.00;;;;;18.04;44.70;99160.06;4775016;28;103197;-73
2021/10/28 16:49:48;;;;;;;;;87.67;74.00;;;;;17.89;44.32;99150.63;4795240;28;102649;-75
2021/10/28 16:52:15;;;;;;;;;81.00;65.00;;;;;17.89;45.54;99156.09;4795071;29;104051;-66
2021/10/28 16:54:43;;;;;;;;;77.75;61.75;;;;;17.84;45.53;99154.91;4790566;28;103459;-68
2021/10/28 16:57:10;;;;;;;;;74.75;56.75;;;;;17.78;44.75;99155.84;4819076;28;102441;-66
2021/10/28 16:59:37;;;;;;;;;71.75;52.00;;;;;17.76;45.46;99152.50;4806388;29;104125;-67
2021/10/28 17:02:05;;;;;;;;;68.75;51.75;;;;;17.72;44.76;99145.84;4768531;29;109119;-69
2021/10/28 17:04:32;;;;;;;;;69.25;53.25;;;;;17.67;44.14;99147.59;4779796;29;102665;-67
2021/10/28 17:06:59;;;;;;;;;67.25;51.00;;;;;17.62;43.70;99152.94;4814754;28;102371;-67
2021/10/28 17:09:26;;;;;;;;;66.75;51.25;;;;;17.57;43.79;99156.34;4817041;28;102636;-67
2021/10/28 17:11:53;;;;;;;;;70.75;52.75;;;;;17.58;43.93;99157.16;4802675;28;104709;-68
2021/10/28 17:14:20;;;;;;;;;62.50;49.50;;;;;17.55;46.27;99150.28;4804243;28;102846;-69
2021/10/28 17:16:47;;;;;;;;;67.75;49.00;;;;;17.73;46.90;99146.69;4794985;28;102542;-68
2021/10/28 17:19:16;;;;;;;;;67.50;49.50;;;;;17.71;44.28;99154.28;4785306;28;102611;-68
2021/10/28 17:21:45;;;;;;;;;63.75;49.00;;;;;17.59;44.25;99146.03;4820323;29;110722;-68
2021/10/28 17:24:26;;;;;;;;;62.50;48.25;;;;;17.72;46.63;99145.00;4728325;29;104979;-67
2021/10/28 17:30:17;;;;;;;;;64.75;47.75;;;;;17.74;44.15;99143.69;4781059;28;103324;-68
2021/10/28 17:32:45;;;;;;;;;62.00;47.00;;;;;17.64;44.07;99148.09;4823577;28;103976;-69
2021/10/28 17:35:13;;;;;;;;;60.25;47.75;;;;;17.60;43.51;99150.44;4783485;28;102455;-68
2021/10/28 17:37:41;;;;;;;;;60.25;47.00;;;;;17.83;48.15;99152.41;4768989;28;103176;-68
2021/10/28 17:40:08;;;;;;;;;59.25;47.25;;;;;17.92;46.84;99155.66;4727852;29;104480;-68
2021/10/28 17:42:35;;;;;;;;;63.50;49.25;;;;;18.05;47.90;99152.69;4765403;28;108800;-68
2021/10/28 17:45:04;;;;;;;;;58.50;45.50;;;;;18.19;48.26;99156.88;4755928;28;102704;-70
2021/10/28 17:47:31;;;;;;;;;54.25;43.75;;;;;18.16;48.24;99151.88;4766507;29;102288;-70
2021/10/28 17:49:58;;;;;;;;;59.75;46.25;;;;;18.10;48.60;99148.16;4670837;29;103798;-69
2021/10/28 17:52:36;;;;;;;;;61.50;46.75;;;;;18.03;49.20;99143.88;4723870;29;109642;-69
2021/10/28 17:55:05;;;;;;;;;59.75;46.25;;;;;18.05;48.77;99139.00;4676286;29;102551;-69
2021/10/28 17:57:32;;;;;;;;;55.00;43.50;;;;;18.08;49.80;99146.75;4781046;28;102803;-68
2021/10/28 17:59:59;;;;;;;;;59.50;45.50;;;;;18.12;50.62;99145.19;4781905;28;102648;-69
2021/10/28 18:02:26;;;;;;;;;58.00;45.00;;;;;18.15;50.70;99147.44;4796504;28;104086;-68
2021/10/28 18:04:53;;;;;;;;;59.50;45.75;;;;;18.17;51.50;99145.31;4820278;28;102269;-69
2021/10/28 18:07:20;;;;;;;;;52.75;43.25;;;;;18.18;51.16;99138.78;4810454;28;102441;-69
2021/10/28 18:09:48;;;;;;;;;51.00;40.00;;;;;18.22;51.29;99142.72;4816091;28;104043;-69
2021/10/28 18:12:15;;;;;;;;;54.50;42.50;;;;;18.23;51.94;99138.91;4818455;28;104269;-69
2021/10/28 18:14:42;;;;;;;;;55.00;43.50;;;;;18.28;51.98;99144.50;4821670;28;102532;-69
2021/10/28 18:17:11;;;;;;;;;53.50;40.00;;;;;18.28;52.08;99144.50;4812023;28;105155;-69
2021/10/28 18:19:39;;;;;;;;;56.25;43.25;;;;;18.28;51.96;99141.78;4826381;28;102674;-70
2021/10/28 18:22:06;;;;;;;;;57.50;45.75;;;;;18.24;52.14;99137.81;4819233;28;105567;-70
2021/10/28 18:24:33;;;;;;;;;36.00;31.75;;;;;18.18;52.14;99136.06;4820088;28;105708;-69
2021/10/28 18:27:00;;;;;;;;;55.00;43.00;;;;;18.13;52.51;99141.41;4831403;28;103873;-69
2021/10/28 18:29:27;;;;;;;;;56.50;43.50;;;;;18.09;52.89;99134.72;4804559;29;102377;-70
2021/10/28 18:31:54;;;;;;;;;50.50;40.75;;;;;18.05;52.56;99133.53;4816413;28;103482;-72
2021/10/28 18:34:21;;;;;;;;;55.75;44.00;;;;;18.02;52.53;99123.03;4821518;28;102581;-69
2021/10/28 18:36:49;;;;;;;;;52.25;42.25;;;;;17.99;53.04;99126.25;4812368;28;104435;-71
2021/10/28 18:39:17;;;;;;;;;51.25;41.50;;;;;17.96;53.00;99124.00;4816402;28;102409;-70
2021/10/28 18:41:47;;;;;;;;;53.25;42.75;;;;;17.94;53.33;99124.22;4783186;28;105210;-70
2021/10/28 18:44:15;;;;;;;;;54.50;42.25;;;;;17.91;52.83;99121.97;4805097;28;112034;-70
2021/10/28 18:46:43;;;;;;;;;56.00;44.50;;;;;17.90;52.79;99122.22;4816000;28;102467;-70
2021/10/28 18:49:10;;;;;;;;;54.25;42.50;;;;;17.87;52.83;99115.31;4820743;28;102703;-70
2021/10/28 18:51:38;;;;;;;;;54.25;43.00;;;;;17.86;53.33;99116.38;4839052;28;104086;-70
2021/10/28 18:54:06;;;;;;;;;52.75;41.00;;;;;17.84;53.00;99116.59;4820577;28;102547;-70
2021/10/28 18:56:33;;;;;;;;;50.50;42.00;;;;;17.83;52.97;99114.94;4816457;28;103486;-70
2021/10/28 18:59:00;;;;;;;;;55.50;44.25;;;;;17.81;53.45;99111.63;4805743;28;103806;-70
2021/10/28 19:01:28;;;;;;;;;52.75;43.00;;;;;17.80;53.41;99109.94;4824256;28;103581;-71
2021/10/28 19:03:56;;;;;;;;;52.25;43.00;;;;;17.77;52.69;99113.16;4810936;28;105413;-70
2021/10/28 19:06:26;;;;;;;;;52.50;39.75;;;;;17.79;53.47;99107.44;4824669;28;102551;-70
2021/10/28 19:08:54;;;;;;;;;52.75;43.00;;;;;17.75;53.79;99107.06;4809732;28;102541;-70
2021/10/28 19:11:26;;;;;;;;;53.00;42.00;;;;;17.74;53.25;99099.94;4810049;28;108822;-70
2021/10/28 19:13:56;;;;;;;;;52.50;43.75;;;;;17.72;52.99;99102.06;4807901;28;102667;-69
2021/10/28 19:16:23;;;;;;;;;54.25;42.25;;;;;17.71;52.62;99103.13;4823113;28;103106;-70
2021/10/28 19:18:52;;;;;;;;;47.75;40.00;;;;;17.70;53.28;99104.19;4805929;29;103572;-70
2021/10/28 19:21:20;;;;;;;;;51.25;40.75;;;;;17.67;52.32;99095.63;4819057;28;105028;-70
2021/10/28 19:23:47;;;;;;;;;53.75;43.25;;;;;17.66;53.05;99102.16;4807251;29;102208;-70
2021/10/28 19:26:14;;;;;;;;;52.00;41.00;;;;;17.64;53.37;99099.69;4822026;28;102604;-70
2021/10/28 19:28:43;;;;;;;;;52.50;41.50;;;;;17.61;53.37;99100.13;4820913;28;102540;-69
2021/10/28 19:31:33;;;;;;;;;55.00;42.75;;;;;17.61;53.40;99099.31;4784783;29;103433;-69
2021/10/28 19:34:05;;;;;;;;;54.75;42.00;;;;;17.58;53.13;99099.75;4789689;29;102520;-70
2021/10/28 19:36:40;;;;;;;;;51.00;41.00;;;;;17.56;52.82;99102.69;4807637;28;102449;-69
2021/10/28 19:39:26;;;;;;;;;52.75;41.25;;;;;17.54;53.88;99098.56;4801880;29;102496;-69
2021/10/28 19:42:13;;;;;;;;;50.00;39.75;;;;;17.54;53.11;99099.38;4791388;29;107990;-70
2021/10/28 19:47:26;;;;;;;;;51.25;40.25;;;;;17.48;52.79;99103.03;4817911;28;102507;-70
2021/10/28 19:49:54;;;;;;;;;51.75;41.75;;;;;17.50;53.56;99103.66;4817591;28;102423;-70
2021/10/28 19:52:21;;;;;;;;;56.50;41.75;;;;;17.51;54.14;99093.56;4799783;29;108452;-70
2021/10/28 19:54:57;;;;;;;;;48.25;39.00;;;;;17.50;53.34;99098.19;4798846;28;103724;-70
2021/10/28 19:57:26;;;;;;;;;50.00;40.75;;;;;17.49;53.81;99101.97;4793868;29;102297;-69
2021/10/28 20:00:00;;;;;;;;;53.50;39.75;;;;;17.49;53.86;99095.69;4801857;28;102181;-70
2021/10/28 20:02:51;;;;;;;;;55.25;40.00;;;;;17.47;53.84;99087.69;4785878;29;107771;-70
2021/10/28 20:21:29;;;;;;;;;50.75;40.75;;;;;17.37;53.70;99082.00;4797692;28;102256;-70
2021/10/28 20:23:55;;;;;;;;;50.00;41.75;;;;;17.36;53.20;99081.16;4798492;29;104190;-70
2021/10/28 20:26:23;;;;;;;;;53.00;40.25;;;;;17.35;53.64;99084.09;4799528;29;105193;-70
2021/10/28 20:28:51;;;;;;;;;51.75;39.00;;;;;17.35;53.56;99086.84;4802147;28;102248;-69
2021/10/28 20:31:21;;;;;;;;;57.50;42.25;;;;;17.33;54.08;99089.00;4796616;29;105435;-69
2021/10/28 20:33:51;;;;;;;;;49.50;39.50;;;;;17.32;53.62;99087.31;4811955;28;104070;-69
2021/10/28 20:38:58;;;;;;;;;52.75;40.25;;;;;17.32;53.48;99090.03;4819305;28;103652;-69
2021/10/28 20:41:25;;;;;;;;;48.75;39.75;;;;;17.30;53.28;99092.16;4821153;28;102210;-69
2021/10/28 20:43:53;;;;;;;;;49.50;38.00;;;;;17.28;54.36;99088.84;4810283;29;104059;-69
2021/10/28 20:46:21;;;;;;;;;51.00;40.25;;;;;17.26;53.87;99080.03;4823007;28;102248;-69
2021/10/28 20:48:49;;;;;;;;;54.50;43.00;;;;;17.24;53.30;99085.75;4825302;28;102315;-69
2021/10/28 20:51:19;;;;;;;;;54.00;41.25;;;;;17.22;53.30;99073.38;4814324;28;106079;-69
2021/10/28 20:53:46;;;;;;;;;47.50;39.50;;;;;17.19;54.03;99069.22;4792896;28;104130;-69
2021/10/28 20:56:13;;;;;;;;;52.25;41.75;;;;;17.18;53.53;99067.53;4810008;28;102352;-69
2021/10/28 20:58:40;;;;;;;;;53.50;40.75;;;;;17.15;53.57;99072.63;4830220;28;103346;-69
2021/10/28 21:01:07;;;;;;;;;56.25;41.50;;;;;17.14;53.56;99070.97;4821795;28;105254;-69
2021/10/28 21:03:34;;;;;;;;;53.50;41.25;;;;;17.12;53.77;99075.81;4820699;28;104267;-69
2021/10/28 21:06:02;;;;;;;;;55.25;40.50;;;;;17.10;53.32;99072.50;4799879;28;103630;-69
2021/10/28 21:08:29;;;;;;;;;51.50;41.25;;;;;17.10;53.88;99069.75;4814823;28;102248;-69
2021/10/28 21:10:56;;;;;;;;;50.25;40.75;;;;;17.11;53.17;99068.72;4829375;28;103202;-69
2021/10/28 21:13:24;;;;;;;;;54.50;42.50;;;;;17.06;53.24;99060.38;4808330;29;111298;-69
2021/10/28 21:15:51;;;;;;;;;56.25;41.50;;;;;17.07;53.30;99064.75;4814440;28;103234;-69
2021/10/28 21:18:18;;;;;;;;;56.50;43.25;;;;;17.06;53.95;99061.19;4817264;28;102923;-69
2021/10/28 21:20:45;;;;;;;;;49.25;37.75;;;;;17.04;53.37;99059.75;4812072;29;102454;-69
2021/10/28 21:23:12;;;;;;;;;48.00;38.50;;;;;17.02;53.45;99057.25;4819861;28;104004;-69
2021/10/28 21:25:39;;;;;;;;;50.50;40.00;;;;;16.99;53.44;99054.97;4822653;28;104433;-69
2021/10/28 21:28:06;;;;;;;;;51.50;41.75;;;;;16.95;54.11;99064.69;4825485;28;102836;-69
2021/10/28 21:30:42;;;;;;;;;50.50;40.25;;;;;16.94;54.15;99052.09;4802286;28;103955;-69
2021/10/28 21:33:10;;;;;;;;;50.75;41.00;;;;;16.91;53.77;99061.59;4824051;28;104077;-69
2021/10/28 21:35:37;;;;;;;;;52.75;43.25;;;;;16.90;53.43;99062.66;4804502;28;103661;-69
2021/10/28 21:38:04;;;;;;;;;54.50;41.50;;;;;16.89;54.16;99066.44;4806211;28;104519;-69
2021/10/28 21:40:31;;;;;;;;;52.75;40.25;;;;;16.88;54.24;99059.34;4797693;28;103145;-69
2021/10/28 21:42:59;;;;;;;;;47.25;35.25;;;;;16.89;53.99;99057.41;4826003;28;103045;-69
2021/10/28 21:45:27;;;;;;;;;44.50;38.00;;;;;16.88;53.28;99061.25;4812614;28;103797;-69
2021/10/28 21:47:54;;;;;;;;;48.25;38.50;;;;;16.86;53.75;99053.25;4820989;28;104025;-69
2021/10/28 21:50:21;;;;;;;;;45.75;35.00;;;;;16.85;53.69;99054.31;4786164;28;102555;-69
2021/10/28 21:52:56;;;;;;;;;51.25;38.00;;;;;16.85;53.79;99046.13;4803374;29;105662;-69
2021/10/28 21:58:10;;;;;;;;;51.50;41.00;;;;;16.82;54.27;99046.59;4802745;29;102254;-69
2021/10/28 22:03:54;;;;;;;;;45.25;38.00;;;;;16.81;53.48;99044.09;4809860;28;104060;-69
2021/10/28 22:25:16;;;;;;;;;48.00;38.00;;;;;16.71;53.21;99033.72;4813078;28;105869;-69
2021/10/28 22:27:44;;;;;;;;;49.50;39.00;;;;;16.72;54.32;99035.38;4829343;28;102557;-69